sensor_id;sensor_type;location;lat;lon;timestamp;P1;durP1;ratioP1;P2;durP2;ratioP2
14584;SDS011;7379;51.506;11.876;2022-10-18T00:01:00;4.70;;;3.30;;
14584;SDS011;7379;51.506;11.876;2022-10-18T00:03:27;4.13;;;3.15;;
14584;SDS011;7379;51.506;11.876;2022-10-18T00:05:54;6.13;;;3.38;;
14584;SDS011;7379;51.506;11.876;2022-10-18T00:08:21;5.22;;;3.10;;
14584;SDS011;7379;51.506;11.876;2022-10-18T00:10:47;4.50;;;3.53;;
14584;SDS011;7379;51.506;11.876;2022-10-18T00:13:16;3.80;;;3.22;;
14584;SDS011;7379;51.506;11.876;2022-10-18T00:15:46;3.72;;;3.20;;
14584;SDS011;7379;51.506;11.876;2022-10-18T00:18:14;3.90;;;3.30;;
14584;SDS011;7379;51.506;11.876;2022-10-18T00:20:41;4.03;;;3.28;;
14584;SDS011;7379;51.506;11.876;2022-10-18T00:23:07;4.68;;;3.30;;
14584;SDS011;7379;51.506;11.876;2022-10-18T00:25:34;3.97;;;3.45;;
14584;SDS011;7379;51.506;11.876;2022-10-18T00:28:01;3.47;;;3.17;;
14584;SDS011;7379;51.506;11.876;2022-10-18T00:30:29;4.38;;;3.50;;
14584;SDS011;7379;51.506;11.876;2022-10-18T00:32:56;4.47;;;3.50;;
14584;SDS011;7379;51.506;11.876;2022-10-18T00:35:23;4.03;;;3.60;;
14584;SDS011;7379;51.506;11.876;2022-10-18T00:37:50;4.13;;;3.33;;
14584;SDS011;7379;51.506;11.876;2022-10-18T00:40:17;6.13;;;3.47;;
14584;SDS011;7379;51.506;11.876;2022-10-18T00:42:43;3.95;;;3.42;;
14584;SDS011;7379;51.506;11.876;2022-10-18T00:45:18;3.92;;;3.50;;
14584;SDS011;7379;51.506;11.876;2022-10-18T00:47:50;3.88;;;3.47;;
14584;SDS011;7379;51.506;11.876;2022-10-18T00:50:19;3.97;;;3.30;;
14584;SDS011;7379;51.506;11.876;2022-10-18T00:52:48;4.50;;;3.40;;
14584;SDS011;7379;51.506;11.876;2022-10-18T00:55:18;4.88;;;3.40;;
14584;SDS011;7379;51.506;11.876;2022-10-18T00:57:45;5.38;;;3.80;;
14584;SDS011;7379;51.506;11.876;2022-10-18T01:00:13;4.80;;;3.70;;
14584;SDS011;7379;51.506;11.876;2022-10-18T01:02:41;5.97;;;3.80;;
14584;SDS011;7379;51.506;11.876;2022-10-18T01:05:12;3.97;;;3.47;;
14584;SDS011;7379;51.506;11.876;2022-10-18T01:07:49;3.92;;;3.50;;
14584;SDS011;7379;51.506;11.876;2022-10-18T01:10:33;4.07;;;3.45;;
14584;SDS011;7379;51.506;11.876;2022-10-18T01:13:23;6.15;;;3.80;;
14584;SDS011;7379;51.506;11.876;2022-10-18T01:15:57;4.10;;;3.70;;
14584;SDS011;7379;51.506;11.876;2022-10-18T01:18:27;7.30;;;3.97;;
14584;SDS011;7379;51.506;11.876;2022-10-18T01:21:05;4.40;;;3.80;;
14584;SDS011;7379;51.506;11.876;2022-10-18T01:23:56;5.18;;;3.60;;
14584;SDS011;7379;51.506;11.876;2022-10-18T01:26:51;4.55;;;3.92;;
14584;SDS011;7379;51.506;11.876;2022-10-18T01:29:31;5.25;;;3.60;;
14584;SDS011;7379;51.506;11.876;2022-10-18T01:32:11;3.63;;;3.33;;
14584;SDS011;7379;51.506;11.876;2022-10-18T01:34:41;6.22;;;3.92;;
14584;SDS011;7379;51.506;11.876;2022-10-18T01:37:12;4.32;;;3.70;;
14584;SDS011;7379;51.506;11.876;2022-10-18T01:39:42;6.22;;;4.15;;
14584;SDS011;7379;51.506;11.876;2022-10-18T01:42:12;4.03;;;3.45;;
14584;SDS011;7379;51.506;11.876;2022-10-18T01:44:43;5.93;;;5.00;;
14584;SDS011;7379;51.506;11.876;2022-10-18T01:47:13;5.68;;;4.10;;
14584;SDS011;7379;51.506;11.876;2022-10-18T01:49:41;4.70;;;3.95;;
14584;SDS011;7379;51.506;11.876;2022-10-18T01:52:08;4.32;;;3.90;;
14584;SDS011;7379;51.506;11.876;2022-10-18T01:54:38;5.97;;;4.18;;
14584;SDS011;7379;51.506;11.876;2022-10-18T01:57:08;5.35;;;3.83;;
14584;SDS011;7379;51.506;11.876;2022-10-18T01:59:45;4.45;;;3.88;;
14584;SDS011;7379;51.506;11.876;2022-10-18T02:02:24;4.18;;;3.78;;
14584;SDS011;7379;51.506;11.876;2022-10-18T02:05:00;4.07;;;3.67;;
14584;SDS011;7379;51.506;11.876;2022-10-18T02:07:33;4.93;;;4.18;;
14584;SDS011;7379;51.506;11.876;2022-10-18T02:10:04;4.30;;;3.67;;
14584;SDS011;7379;51.506;11.876;2022-10-18T02:12:35;7.07;;;4.13;;
14584;SDS011;7379;51.506;11.876;2022-10-18T02:15:05;4.03;;;3.65;;
14584;SDS011;7379;51.506;11.876;2022-10-18T02:17:35;4.28;;;3.88;;
14584;SDS011;7379;51.506;11.876;2022-10-18T02:20:05;4.60;;;4.10;;
14584;SDS011;7379;51.506;11.876;2022-10-18T02:22:34;5.18;;;3.92;;
14584;SDS011;7379;51.506;11.876;2022-10-18T02:25:07;4.57;;;3.90;;
14584;SDS011;7379;51.506;11.876;2022-10-18T02:27:40;4.07;;;3.67;;
14584;SDS011;7379;51.506;11.876;2022-10-18T02:30:07;4.55;;;4.00;;
14584;SDS011;7379;51.506;11.876;2022-10-18T02:32:37;4.55;;;3.92;;
14584;SDS011;7379;51.506;11.876;2022-10-18T02:35:09;4.70;;;3.97;;
14584;SDS011;7379;51.506;11.876;2022-10-18T02:37:41;4.47;;;4.05;;
14584;SDS011;7379;51.506;11.876;2022-10-18T02:40:10;5.53;;;4.07;;
14584;SDS011;7379;51.506;11.876;2022-10-18T02:42:38;4.30;;;3.90;;
14584;SDS011;7379;51.506;11.876;2022-10-18T02:45:11;5.45;;;4.20;;
14584;SDS011;7379;51.506;11.876;2022-10-18T02:47:40;4.75;;;4.30;;
14584;SDS011;7379;51.506;11.876;2022-10-18T02:50:07;4.53;;;3.95;;
14584;SDS011;7379;51.506;11.876;2022-10-18T02:52:34;4.45;;;4.05;;
14584;SDS011;7379;51.506;11.876;2022-10-18T02:55:01;4.70;;;4.00;;
14584;SDS011;7379;51.506;11.876;2022-10-18T02:57:29;4.50;;;4.05;;
14584;SDS011;7379;51.506;11.876;2022-10-18T02:59:56;4.68;;;4.22;;
14584;SDS011;7379;51.506;11.876;2022-10-18T03:02:22;5.05;;;4.47;;
14584;SDS011;7379;51.506;11.876;2022-10-18T03:04:51;5.72;;;4.35;;
14584;SDS011;7379;51.506;11.876;2022-10-18T03:07:18;5.00;;;4.50;;
14584;SDS011;7379;51.506;11.876;2022-10-18T03:09:44;5.15;;;4.65;;
14584;SDS011;7379;51.506;11.876;2022-10-18T03:12:11;6.45;;;4.57;;
14584;SDS011;7379;51.506;11.876;2022-10-18T03:14:38;5.32;;;4.50;;
14584;SDS011;7379;51.506;11.876;2022-10-18T03:17:05;5.20;;;4.60;;
14584;SDS011;7379;51.506;11.876;2022-10-18T03:19:32;4.97;;;4.45;;
14584;SDS011;7379;51.506;11.876;2022-10-18T03:22:00;5.97;;;4.63;;
14584;SDS011;7379;51.506;11.876;2022-10-18T03:24:27;5.40;;;4.30;;
14584;SDS011;7379;51.506;11.876;2022-10-18T03:26:54;6.97;;;4.97;;
14584;SDS011;7379;51.506;11.876;2022-10-18T03:29:20;7.00;;;5.03;;
14584;SDS011;7379;51.506;11.876;2022-10-18T03:31:47;4.82;;;4.10;;
14584;SDS011;7379;51.506;11.876;2022-10-18T03:34:14;6.55;;;4.55;;
14584;SDS011;7379;51.506;11.876;2022-10-18T03:36:41;4.72;;;4.25;;
14584;SDS011;7379;51.506;11.876;2022-10-18T03:39:10;5.22;;;4.72;;
14584;SDS011;7379;51.506;11.876;2022-10-18T03:41:37;5.43;;;4.75;;
14584;SDS011;7379;51.506;11.876;2022-10-18T03:44:04;6.78;;;6.18;;
14584;SDS011;7379;51.506;11.876;2022-10-18T03:46:30;5.45;;;4.80;;
14584;SDS011;7379;51.506;11.876;2022-10-18T03:48:57;5.75;;;4.90;;
14584;SDS011;7379;51.506;11.876;2022-10-18T03:51:24;6.35;;;4.88;;
14584;SDS011;7379;51.506;11.876;2022-10-18T03:53:51;5.85;;;5.05;;
14584;SDS011;7379;51.506;11.876;2022-10-18T03:56:19;5.38;;;4.85;;
14584;SDS011;7379;51.506;11.876;2022-10-18T03:58:45;5.20;;;4.70;;
14584;SDS011;7379;51.506;11.876;2022-10-18T04:01:12;5.55;;;4.93;;
14584;SDS011;7379;51.506;11.876;2022-10-18T04:03:39;5.43;;;4.90;;
14584;SDS011;7379;51.506;11.876;2022-10-18T04:06:06;5.38;;;4.80;;
14584;SDS011;7379;51.506;11.876;2022-10-18T04:08:34;5.13;;;4.63;;
14584;SDS011;7379;51.506;11.876;2022-10-18T04:11:03;6.43;;;5.05;;
14584;SDS011;7379;51.506;11.876;2022-10-18T04:13:33;5.10;;;4.45;;
14584;SDS011;7379;51.506;11.876;2022-10-18T04:16:00;5.32;;;4.45;;
14584;SDS011;7379;51.506;11.876;2022-10-18T04:18:27;5.60;;;5.00;;
14584;SDS011;7379;51.506;11.876;2022-10-18T04:20:54;5.22;;;4.72;;
14584;SDS011;7379;51.506;11.876;2022-10-18T04:23:21;5.95;;;4.57;;
14584;SDS011;7379;51.506;11.876;2022-10-18T04:25:47;6.45;;;5.07;;
14584;SDS011;7379;51.506;11.876;2022-10-18T04:28:14;6.20;;;4.75;;
14584;SDS011;7379;51.506;11.876;2022-10-18T04:30:47;7.75;;;5.18;;
14584;SDS011;7379;51.506;11.876;2022-10-18T04:33:15;5.38;;;4.88;;
14584;SDS011;7379;51.506;11.876;2022-10-18T04:35:41;5.38;;;4.88;;
14584;SDS011;7379;51.506;11.876;2022-10-18T04:38:08;5.85;;;5.25;;
14584;SDS011;7379;51.506;11.876;2022-10-18T04:40:35;5.30;;;4.80;;
14584;SDS011;7379;51.506;11.876;2022-10-18T04:43:02;5.57;;;4.90;;
14584;SDS011;7379;51.506;11.876;2022-10-18T04:45:29;5.82;;;5.32;;
14584;SDS011;7379;51.506;11.876;2022-10-18T04:47:57;5.53;;;4.97;;
14584;SDS011;7379;51.506;11.876;2022-10-18T04:50:24;7.57;;;5.30;;
14584;SDS011;7379;51.506;11.876;2022-10-18T04:52:51;5.47;;;4.65;;
14584;SDS011;7379;51.506;11.876;2022-10-18T04:55:17;6.13;;;5.53;;
14584;SDS011;7379;51.506;11.876;2022-10-18T04:57:44;6.32;;;5.07;;
14584;SDS011;7379;51.506;11.876;2022-10-18T05:00:11;5.47;;;4.97;;
14584;SDS011;7379;51.506;11.876;2022-10-18T05:02:39;5.45;;;4.95;;
14584;SDS011;7379;51.506;11.876;2022-10-18T05:05:07;6.93;;;5.68;;
14584;SDS011;7379;51.506;11.876;2022-10-18T05:07:34;5.82;;;5.30;;
14584;SDS011;7379;51.506;11.876;2022-10-18T05:10:01;6.38;;;4.82;;
14584;SDS011;7379;51.506;11.876;2022-10-18T05:12:29;5.65;;;5.13;;
14584;SDS011;7379;51.506;11.876;2022-10-18T05:14:55;5.78;;;5.28;;
14584;SDS011;7379;51.506;11.876;2022-10-18T05:17:22;5.50;;;4.97;;
14584;SDS011;7379;51.506;11.876;2022-10-18T05:19:49;5.82;;;5.10;;
14584;SDS011;7379;51.506;11.876;2022-10-18T05:22:17;5.60;;;5.05;;
14584;SDS011;7379;51.506;11.876;2022-10-18T05:24:44;5.43;;;4.93;;
14584;SDS011;7379;51.506;11.876;2022-10-18T05:27:11;6.80;;;4.57;;
14584;SDS011;7379;51.506;11.876;2022-10-18T05:29:37;5.20;;;4.60;;
14584;SDS011;7379;51.506;11.876;2022-10-18T05:32:04;5.72;;;5.05;;
14584;SDS011;7379;51.506;11.876;2022-10-18T05:34:31;6.38;;;4.68;;
14584;SDS011;7379;51.506;11.876;2022-10-18T05:36:58;5.53;;;5.03;;
14584;SDS011;7379;51.506;11.876;2022-10-18T05:39:26;6.60;;;5.10;;
14584;SDS011;7379;51.506;11.876;2022-10-18T05:41:53;6.55;;;4.85;;
14584;SDS011;7379;51.506;11.876;2022-10-18T05:44:20;5.35;;;4.85;;
14584;SDS011;7379;51.506;11.876;2022-10-18T05:46:47;5.63;;;5.03;;
14584;SDS011;7379;51.506;11.876;2022-10-18T05:49:14;6.45;;;5.07;;
14584;SDS011;7379;51.506;11.876;2022-10-18T05:51:40;5.60;;;5.00;;
14584;SDS011;7379;51.506;11.876;2022-10-18T05:54:08;6.55;;;4.97;;
14584;SDS011;7379;51.506;11.876;2022-10-18T05:56:37;5.68;;;5.18;;
14584;SDS011;7379;51.506;11.876;2022-10-18T05:59:04;6.55;;;5.88;;
14584;SDS011;7379;51.506;11.876;2022-10-18T06:01:34;7.43;;;5.28;;
14584;SDS011;7379;51.506;11.876;2022-10-18T06:04:01;6.15;;;5.55;;
14584;SDS011;7379;51.506;11.876;2022-10-18T06:06:27;5.82;;;5.20;;
14584;SDS011;7379;51.506;11.876;2022-10-18T06:08:56;5.72;;;5.20;;
14584;SDS011;7379;51.506;11.876;2022-10-18T06:11:23;6.85;;;5.68;;
14584;SDS011;7379;51.506;11.876;2022-10-18T06:13:52;7.63;;;6.15;;
14584;SDS011;7379;51.506;11.876;2022-10-18T06:16:19;5.85;;;5.18;;
14584;SDS011;7379;51.506;11.876;2022-10-18T06:18:47;7.65;;;5.70;;
14584;SDS011;7379;51.506;11.876;2022-10-18T06:21:14;6.20;;;5.13;;
14584;SDS011;7379;51.506;11.876;2022-10-18T06:23:42;5.78;;;5.25;;
14584;SDS011;7379;51.506;11.876;2022-10-18T06:26:09;5.30;;;4.80;;
14584;SDS011;7379;51.506;11.876;2022-10-18T06:28:37;5.90;;;4.85;;
14584;SDS011;7379;51.506;11.876;2022-10-18T06:31:05;5.55;;;5.05;;
14584;SDS011;7379;51.506;11.876;2022-10-18T06:33:32;5.50;;;4.63;;
14584;SDS011;7379;51.506;11.876;2022-10-18T06:36:00;5.38;;;4.85;;
14584;SDS011;7379;51.506;11.876;2022-10-18T06:38:29;5.00;;;4.60;;
14584;SDS011;7379;51.506;11.876;2022-10-18T06:40:56;5.82;;;5.22;;
14584;SDS011;7379;51.506;11.876;2022-10-18T06:43:23;5.50;;;5.00;;
14584;SDS011;7379;51.506;11.876;2022-10-18T06:45:51;6.30;;;5.03;;
14584;SDS011;7379;51.506;11.876;2022-10-18T06:48:20;5.43;;;4.93;;
14584;SDS011;7379;51.506;11.876;2022-10-18T06:50:50;5.57;;;4.97;;
14584;SDS011;7379;51.506;11.876;2022-10-18T06:53:18;5.03;;;4.45;;
14584;SDS011;7379;51.506;11.876;2022-10-18T06:55:45;5.82;;;5.15;;
14584;SDS011;7379;51.506;11.876;2022-10-18T06:58:12;4.93;;;4.43;;
14584;SDS011;7379;51.506;11.876;2022-10-18T07:00:38;5.90;;;4.80;;
14584;SDS011;7379;51.506;11.876;2022-10-18T07:03:05;5.82;;;5.05;;
14584;SDS011;7379;51.506;11.876;2022-10-18T07:05:33;5.28;;;4.78;;
14584;SDS011;7379;51.506;11.876;2022-10-18T07:08:00;4.70;;;4.25;;
14584;SDS011;7379;51.506;11.876;2022-10-18T07:10:27;5.07;;;4.38;;
14584;SDS011;7379;51.506;11.876;2022-10-18T07:12:54;5.60;;;4.80;;
14584;SDS011;7379;51.506;11.876;2022-10-18T07:15:21;5.40;;;4.90;;
14584;SDS011;7379;51.506;11.876;2022-10-18T07:17:48;5.75;;;5.15;;
14584;SDS011;7379;51.506;11.876;2022-10-18T07:20:15;5.00;;;4.50;;
14584;SDS011;7379;51.506;11.876;2022-10-18T07:22:43;5.47;;;4.65;;
14584;SDS011;7379;51.506;11.876;2022-10-18T07:25:10;5.35;;;4.85;;
14584;SDS011;7379;51.506;11.876;2022-10-18T07:27:37;5.82;;;4.90;;
14584;SDS011;7379;51.506;11.876;2022-10-18T07:30:06;5.07;;;4.57;;
14584;SDS011;7379;51.506;11.876;2022-10-18T07:32:33;4.80;;;4.40;;
14584;SDS011;7379;51.506;11.876;2022-10-18T07:35:00;5.32;;;4.40;;
14584;SDS011;7379;51.506;11.876;2022-10-18T07:37:27;4.72;;;4.32;;
14584;SDS011;7379;51.506;11.876;2022-10-18T07:39:55;4.70;;;4.30;;
14584;SDS011;7379;51.506;11.876;2022-10-18T07:42:22;5.40;;;4.15;;
14584;SDS011;7379;51.506;11.876;2022-10-18T07:44:49;4.97;;;4.40;;
14584;SDS011;7379;51.506;11.876;2022-10-18T07:47:16;4.40;;;4.00;;
14584;SDS011;7379;51.506;11.876;2022-10-18T07:49:43;4.72;;;3.83;;
14584;SDS011;7379;51.506;11.876;2022-10-18T07:52:09;4.18;;;3.78;;
14584;SDS011;7379;51.506;11.876;2022-10-18T07:54:36;4.63;;;3.63;;
14584;SDS011;7379;51.506;11.876;2022-10-18T07:57:04;4.90;;;3.70;;
14584;SDS011;7379;51.506;11.876;2022-10-18T07:59:31;4.43;;;3.58;;
14584;SDS011;7379;51.506;11.876;2022-10-18T08:01:58;4.40;;;3.40;;
14584;SDS011;7379;51.506;11.876;2022-10-18T08:04:25;3.72;;;3.35;;
14584;SDS011;7379;51.506;11.876;2022-10-18T08:06:51;3.78;;;3.15;;
14584;SDS011;7379;51.506;11.876;2022-10-18T08:09:18;3.47;;;3.17;;
14584;SDS011;7379;51.506;11.876;2022-10-18T08:11:45;3.83;;;3.10;;
14584;SDS011;7379;51.506;11.876;2022-10-18T08:14:13;3.50;;;3.20;;
14584;SDS011;7379;51.506;11.876;2022-10-18T08:16:40;3.40;;;2.90;;
14584;SDS011;7379;51.506;11.876;2022-10-18T08:19:07;3.53;;;2.92;;
14584;SDS011;7379;51.506;11.876;2022-10-18T08:21:33;4.25;;;3.17;;
14584;SDS011;7379;51.506;11.876;2022-10-18T08:24:00;3.53;;;3.22;;
14584;SDS011;7379;51.506;11.876;2022-10-18T08:26:27;3.20;;;2.90;;
14584;SDS011;7379;51.506;11.876;2022-10-18T08:28:54;3.67;;;3.38;;
14584;SDS011;7379;51.506;11.876;2022-10-18T08:31:22;3.75;;;3.00;;
14584;SDS011;7379;51.506;11.876;2022-10-18T08:33:48;3.75;;;3.10;;
14584;SDS011;7379;51.506;11.876;2022-10-18T08:36:15;3.65;;;2.97;;
14584;SDS011;7379;51.506;11.876;2022-10-18T08:38:43;3.47;;;3.05;;
14584;SDS011;7379;51.506;11.876;2022-10-18T08:41:19;4.45;;;3.30;;
14584;SDS011;7379;51.506;11.876;2022-10-18T08:44:09;3.03;;;2.78;;
14584;SDS011;7379;51.506;11.876;2022-10-18T08:46:43;3.10;;;2.80;;
14584;SDS011;7379;51.506;11.876;2022-10-18T08:49:14;3.03;;;2.72;;
14584;SDS011;7379;51.506;11.876;2022-10-18T08:51:47;3.20;;;2.60;;
14584;SDS011;7379;51.506;11.876;2022-10-18T08:54:17;3.00;;;2.70;;
14584;SDS011;7379;51.506;11.876;2022-10-18T08:57:00;3.53;;;2.78;;
14584;SDS011;7379;51.506;11.876;2022-10-18T08:59:33;3.58;;;2.80;;
14584;SDS011;7379;51.506;11.876;2022-10-18T09:02:09;3.20;;;2.90;;
14584;SDS011;7379;51.506;11.876;2022-10-18T09:04:48;2.90;;;2.60;;
14584;SDS011;7379;51.506;11.876;2022-10-18T09:07:27;3.00;;;2.70;;
14584;SDS011;7379;51.506;11.876;2022-10-18T09:10:13;2.72;;;2.47;;
14584;SDS011;7379;51.506;11.876;2022-10-18T09:12:51;2.75;;;2.55;;
14584;SDS011;7379;51.506;11.876;2022-10-18T09:15:28;2.53;;;2.33;;
14584;SDS011;7379;51.506;11.876;2022-10-18T09:18:11;2.60;;;2.40;;
14584;SDS011;7379;51.506;11.876;2022-10-18T09:20:48;3.33;;;2.50;;
14584;SDS011;7379;51.506;11.876;2022-10-18T09:23:18;2.88;;;2.38;;
14584;SDS011;7379;51.506;11.876;2022-10-18T09:25:47;2.67;;;2.40;;
14584;SDS011;7379;51.506;11.876;2022-10-18T09:28:18;2.60;;;2.40;;
14584;SDS011;7379;51.506;11.876;2022-10-18T09:30:54;2.60;;;2.40;;
14584;SDS011;7379;51.506;11.876;2022-10-18T09:33:34;3.05;;;2.53;;
14584;SDS011;7379;51.506;11.876;2022-10-18T09:36:09;3.40;;;2.55;;
14584;SDS011;7379;51.506;11.876;2022-10-18T09:38:41;3.55;;;2.47;;
14584;SDS011;7379;51.506;11.876;2022-10-18T09:41:12;2.30;;;2.10;;
14584;SDS011;7379;51.506;11.876;2022-10-18T09:43:48;2.92;;;2.47;;
14584;SDS011;7379;51.506;11.876;2022-10-18T09:46:20;2.47;;;2.20;;
14584;SDS011;7379;51.506;11.876;2022-10-18T09:48:52;2.30;;;2.10;;
14584;SDS011;7379;51.506;11.876;2022-10-18T09:51:24;2.83;;;2.20;;
14584;SDS011;7379;51.506;11.876;2022-10-18T09:53:57;4.15;;;2.30;;
14584;SDS011;7379;51.506;11.876;2022-10-18T09:56:35;2.72;;;2.20;;
14584;SDS011;7379;51.506;11.876;2022-10-18T09:59:06;3.17;;;2.20;;
14584;SDS011;7379;51.506;11.876;2022-10-18T10:01:48;2.45;;;2.25;;
14584;SDS011;7379;51.506;11.876;2022-10-18T10:04:16;3.40;;;2.17;;
14584;SDS011;7379;51.506;11.876;2022-10-18T10:06:47;2.90;;;2.20;;
14584;SDS011;7379;51.506;11.876;2022-10-18T10:09:16;2.13;;;1.92;;
14584;SDS011;7379;51.506;11.876;2022-10-18T10:11:47;2.65;;;2.10;;
14584;SDS011;7379;51.506;11.876;2022-10-18T10:14:15;2.30;;;2.03;;
14584;SDS011;7379;51.506;11.876;2022-10-18T10:16:45;3.53;;;2.40;;
14584;SDS011;7379;51.506;11.876;2022-10-18T10:19:20;2.70;;;2.25;;
14584;SDS011;7379;51.506;11.876;2022-10-18T10:21:50;2.40;;;2.20;;
14584;SDS011;7379;51.506;11.876;2022-10-18T10:24:22;2.47;;;2.28;;
14584;SDS011;7379;51.506;11.876;2022-10-18T10:26:58;2.30;;;2.10;;
14584;SDS011;7379;51.506;11.876;2022-10-18T10:32:18;2.63;;;2.20;;
14584;SDS011;7379;51.506;11.876;2022-10-18T10:34:48;2.35;;;2.15;;
14584;SDS011;7379;51.506;11.876;2022-10-18T10:37:26;2.50;;;2.20;;
14584;SDS011;7379;51.506;11.876;2022-10-18T10:40:04;2.60;;;2.40;;
14584;SDS011;7379;51.506;11.876;2022-10-18T10:45:33;2.75;;;2.15;;
14584;SDS011;7379;51.506;11.876;2022-10-18T10:48:06;2.20;;;2.05;;
14584;SDS011;7379;51.506;11.876;2022-10-18T10:50:50;2.40;;;2.20;;
14584;SDS011;7379;51.506;11.876;2022-10-18T10:53:25;2.40;;;2.20;;
14584;SDS011;7379;51.506;11.876;2022-10-18T10:55:53;3.10;;;2.30;;
14584;SDS011;7379;51.506;11.876;2022-10-18T10:58:21;2.80;;;2.30;;
14584;SDS011;7379;51.506;11.876;2022-10-18T11:00:48;2.38;;;2.17;;
14584;SDS011;7379;51.506;11.876;2022-10-18T11:03:16;2.45;;;2.10;;
14584;SDS011;7379;51.506;11.876;2022-10-18T11:05:45;2.85;;;2.20;;
14584;SDS011;7379;51.506;11.876;2022-10-18T11:08:15;2.40;;;2.20;;
14584;SDS011;7379;51.506;11.876;2022-10-18T11:10:51;2.42;;;2.00;;
14584;SDS011;7379;51.506;11.876;2022-10-18T11:13:36;2.40;;;2.20;;
14584;SDS011;7379;51.506;11.876;2022-10-18T11:16:13;3.00;;;2.40;;
14584;SDS011;7379;51.506;11.876;2022-10-18T11:18:45;2.60;;;2.40;;
14584;SDS011;7379;51.506;11.876;2022-10-18T11:21:16;2.80;;;2.50;;
14584;SDS011;7379;51.506;11.876;2022-10-18T11:23:48;2.60;;;2.40;;
14584;SDS011;7379;51.506;11.876;2022-10-18T11:26:22;2.55;;;2.35;;
14584;SDS011;7379;51.506;11.876;2022-10-18T11:29:10;2.58;;;2.10;;
14584;SDS011;7379;51.506;11.876;2022-10-18T11:31:50;3.22;;;2.75;;
14584;SDS011;7379;51.506;11.876;2022-10-18T11:34:27;3.53;;;2.72;;
14584;SDS011;7379;51.506;11.876;2022-10-18T11:37:10;3.88;;;3.38;;
14584;SDS011;7379;51.506;11.876;2022-10-18T11:39:52;3.70;;;3.20;;
14584;SDS011;7379;51.506;11.876;2022-10-18T11:42:25;3.30;;;3.00;;
14584;SDS011;7379;51.506;11.876;2022-10-18T11:45:02;3.95;;;3.60;;
14584;SDS011;7379;51.506;11.876;2022-10-18T11:47:39;3.63;;;3.17;;
14584;SDS011;7379;51.506;11.876;2022-10-18T11:50:16;3.92;;;3.58;;
14584;SDS011;7379;51.506;11.876;2022-10-18T11:52:52;3.38;;;3.08;;
14584;SDS011;7379;51.506;11.876;2022-10-18T11:55:33;4.07;;;3.40;;
14584;SDS011;7379;51.506;11.876;2022-10-18T11:58:14;3.90;;;3.42;;
14584;SDS011;7379;51.506;11.876;2022-10-18T12:00:51;3.85;;;3.45;;
14584;SDS011;7379;51.506;11.876;2022-10-18T12:03:29;3.88;;;3.47;;
14584;SDS011;7379;51.506;11.876;2022-10-18T12:06:11;4.32;;;3.92;;
14584;SDS011;7379;51.506;11.876;2022-10-18T12:08:40;4.10;;;3.70;;
14584;SDS011;7379;51.506;11.876;2022-10-18T12:11:13;3.85;;;3.45;;
14584;SDS011;7379;51.506;11.876;2022-10-18T12:13:43;4.93;;;3.63;;
14584;SDS011;7379;51.506;11.876;2022-10-18T12:16:13;4.63;;;4.00;;
14584;SDS011;7379;51.506;11.876;2022-10-18T12:18:50;3.50;;;3.20;;
14584;SDS011;7379;51.506;11.876;2022-10-18T12:21:20;4.32;;;3.85;;
14584;SDS011;7379;51.506;11.876;2022-10-18T12:23:50;4.50;;;4.10;;
14584;SDS011;7379;51.506;11.876;2022-10-18T12:26:21;4.20;;;3.80;;
14584;SDS011;7379;51.506;11.876;2022-10-18T12:28:52;4.10;;;3.70;;
14584;SDS011;7379;51.506;11.876;2022-10-18T12:31:30;4.07;;;3.58;;
14584;SDS011;7379;51.506;11.876;2022-10-18T12:34:03;4.32;;;3.92;;
14584;SDS011;7379;51.506;11.876;2022-10-18T12:36:44;4.30;;;3.90;;
14584;SDS011;7379;51.506;11.876;2022-10-18T12:39:21;4.80;;;4.30;;
14584;SDS011;7379;51.506;11.876;2022-10-18T12:41:53;4.13;;;3.80;;
14584;SDS011;7379;51.506;11.876;2022-10-18T12:44:22;5.07;;;4.10;;
14584;SDS011;7379;51.506;11.876;2022-10-18T12:46:54;4.03;;;3.63;;
14584;SDS011;7379;51.506;11.876;2022-10-18T12:49:23;4.13;;;3.72;;
14584;SDS011;7379;51.506;11.876;2022-10-18T12:51:54;4.10;;;3.60;;
14584;SDS011;7379;51.506;11.876;2022-10-18T12:54:24;4.07;;;3.60;;
14584;SDS011;7379;51.506;11.876;2022-10-18T12:56:55;3.95;;;3.55;;
14584;SDS011;7379;51.506;11.876;2022-10-18T13:02:18;3.92;;;3.53;;
14584;SDS011;7379;51.506;11.876;2022-10-18T13:04:56;3.75;;;3.42;;
14584;SDS011;7379;51.506;11.876;2022-10-18T13:07:34;3.75;;;3.45;;
14584;SDS011;7379;51.506;11.876;2022-10-18T13:13:17;4.03;;;3.63;;
14584;SDS011;7379;51.506;11.876;2022-10-18T13:15:53;4.25;;;3.85;;
14584;SDS011;7379;51.506;11.876;2022-10-18T13:18:28;3.80;;;3.50;;
14584;SDS011;7379;51.506;11.876;2022-10-18T13:21:08;3.85;;;3.55;;
14584;SDS011;7379;51.506;11.876;2022-10-18T13:23:45;3.50;;;3.20;;
14584;SDS011;7379;51.506;11.876;2022-10-18T13:26:27;3.58;;;3.15;;
14584;SDS011;7379;51.506;11.876;2022-10-18T13:29:01;4.10;;;2.97;;
14584;SDS011;7379;51.506;11.876;2022-10-18T13:31:41;3.70;;;3.40;;
14584;SDS011;7379;51.506;11.876;2022-10-18T13:34:20;3.53;;;3.20;;
14584;SDS011;7379;51.506;11.876;2022-10-18T13:36:57;4.93;;;3.45;;
14584;SDS011;7379;51.506;11.876;2022-10-18T13:39:25;3.30;;;3.00;;
14584;SDS011;7379;51.506;11.876;2022-10-18T13:47:57;4.65;;;3.58;;
14584;SDS011;7379;51.506;11.876;2022-10-18T13:51:05;3.90;;;3.00;;
14584;SDS011;7379;51.506;11.876;2022-10-18T13:53:46;3.15;;;2.85;;
14584;SDS011;7379;51.506;11.876;2022-10-18T13:56:37;3.58;;;3.25;;
14584;SDS011;7379;51.506;11.876;2022-10-18T13:59:20;3.28;;;2.60;;
14584;SDS011;7379;51.506;11.876;2022-10-18T14:05:00;3.25;;;2.95;;
14584;SDS011;7379;51.506;11.876;2022-10-18T14:07:39;3.30;;;3.00;;
14584;SDS011;7379;51.506;11.876;2022-10-18T14:10:08;3.80;;;3.40;;
14584;SDS011;7379;51.506;11.876;2022-10-18T14:12:44;4.93;;;3.03;;
14584;SDS011;7379;51.506;11.876;2022-10-18T14:15:17;3.38;;;3.08;;
14584;SDS011;7379;51.506;11.876;2022-10-18T14:17:46;3.40;;;3.10;;
14584;SDS011;7379;51.506;11.876;2022-10-18T14:20:19;3.50;;;3.20;;
14584;SDS011;7379;51.506;11.876;2022-10-18T14:22:50;3.42;;;3.13;;
14584;SDS011;7379;51.506;11.876;2022-10-18T14:25:25;3.50;;;3.20;;
14584;SDS011;7379;51.506;11.876;2022-10-18T14:28:06;3.40;;;3.10;;
14584;SDS011;7379;51.506;11.876;2022-10-18T14:30:49;3.20;;;2.90;;
14584;SDS011;7379;51.506;11.876;2022-10-18T14:33:23;3.35;;;3.03;;
14584;SDS011;7379;51.506;11.876;2022-10-18T14:36:00;3.47;;;3.00;;
14584;SDS011;7379;51.506;11.876;2022-10-18T14:38:31;3.38;;;3.08;;
14584;SDS011;7379;51.506;11.876;2022-10-18T14:41:03;4.30;;;3.22;;
14584;SDS011;7379;51.506;11.876;2022-10-18T14:43:31;3.05;;;2.72;;
14584;SDS011;7379;51.506;11.876;2022-10-18T14:46:06;3.50;;;3.10;;
14584;SDS011;7379;51.506;11.876;2022-10-18T14:48:34;3.50;;;3.20;;
14584;SDS011;7379;51.506;11.876;2022-10-18T14:51:02;3.25;;;2.95;;
14584;SDS011;7379;51.506;11.876;2022-10-18T14:53:36;2.88;;;2.67;;
14584;SDS011;7379;51.506;11.876;2022-10-18T14:56:04;3.25;;;2.95;;
14584;SDS011;7379;51.506;11.876;2022-10-18T14:58:33;2.97;;;2.72;;
14584;SDS011;7379;51.506;11.876;2022-10-18T15:01:12;4.07;;;3.38;;
14584;SDS011;7379;51.506;11.876;2022-10-18T15:03:41;3.40;;;3.10;;
14584;SDS011;7379;51.506;11.876;2022-10-18T15:06:14;3.53;;;3.17;;
14584;SDS011;7379;51.506;11.876;2022-10-18T15:08:44;3.83;;;3.00;;
14584;SDS011;7379;51.506;11.876;2022-10-18T15:11:14;3.33;;;3.03;;
14584;SDS011;7379;51.506;11.876;2022-10-18T15:13:44;3.70;;;3.40;;
14584;SDS011;7379;51.506;11.876;2022-10-18T15:16:14;3.47;;;3.17;;
14584;SDS011;7379;51.506;11.876;2022-10-18T15:18:43;3.85;;;3.30;;
14584;SDS011;7379;51.506;11.876;2022-10-18T15:21:25;3.50;;;3.20;;
14584;SDS011;7379;51.506;11.876;2022-10-18T15:23:52;3.33;;;3.03;;
14584;SDS011;7379;51.506;11.876;2022-10-18T15:26:20;3.30;;;3.00;;
14584;SDS011;7379;51.506;11.876;2022-10-18T15:28:50;3.60;;;3.30;;
14584;SDS011;7379;51.506;11.876;2022-10-18T15:31:21;3.42;;;3.13;;